Main page
METAR-TAF:

METAR-TAF

Airports :

Bojnord Airport

Bojnourd, Iran

latitude: 37-28N, longitude: 057-20E, elevation: 1074 m

Current weather observation

The report was made 52 minutes ago, at 13:00 UTC
Wind 4 kt from the West/Northwest
Temperature 11°C
Humidity 40%
Pressure 1019 hPa
Visibility 10 km or more
Few clouds at a height of 7000 ft

METAR: OIMN 281300Z 29004KT 9999 FEW070 11/M02 Q1019

Time: 17:22 (13:52 UTC)


TAF: missing

Weather observations and forecasts of more than 4000 airports (METAR and TAF reports).

The available stations are represented by yellow and red dots on the map.

Hover mouse over dot to see the name of the station.

Then click to see weather observations and forecasts.

To change the map : click on the green buttons with a black cross to zoom in, on the green button with a dash to zoom out, or on the green arrows for adjacent maps.


METAR-TAF: